1999 Severe Tropical Cyclone BIRENDA:DAMIEN (1999021S13113)


IBTrACS version v04r00. Visit IBTrACS website for data access.
Please direct all questions to the IBTrACS Q and A forum

Storm track - Intensity - Wind Radii - Intensity Data - Source Data - All data

Summary Information

Satellite image near maximum intensity
Storm ID 1999021S13113
Start Jan 21 01Z
Max Intensity 95 kt (Jan 25 00Z), 950 mb (Jan 24 22Z)
End Feb 3 00Z
ATCF IDs ,SH151999
Track status Best track data.

Storm track plot

Map of storm track

Intensity plots

Map of storm track

Radial wind information

Map of storm track

Position and Intensity Table

BASIN ISO_TIME_________ NATURE LAT LON WMO WIND WMO PRES USA WIND REUNION WIND REUNION PRES BOM WIND BOM PRES NEUMANN WIND NEUMANN PRES
degrees north degrees east kts mb kts kts mb kts mb kts mb
SI 1999-01-21 01:00:00 NR -12.90 113.20 25 1000 25 1000
SI 03:00:00 NR -12.86 113.11 26 999
SI 06:00:00 NR -12.81 112.91 29 998
SI 07:00:00 NR -12.80 112.80 30 998 30 998
SI 09:00:00 NR -12.79 112.53 33 996
SI 10:00:00 NR -12.80 112.40 35 995 35 995
SI 12:00:00 NR -12.58 111.77 25 38 991
SI 13:00:00 NR -12.46 111.41 40 990 25 40 990
SI 15:00:00 NR -12.49 111.03 25 40 990
SI 16:00:00 NR -12.50 110.82 40 990 25 40 990
SI 18:00:00 NR -12.68 110.67 25 40 990
SI 19:00:00 NR -12.76 110.57 40 990 25 40 990
SI 21:00:00 NR -12.89 110.32 25 40 990
SI 22:00:00 NR -12.94 110.18 40 990 25 40 990
SI 1999-01-22 00:00:00 NR -13.04 109.88 25 40 990
SI 01:00:00 NR -13.07 109.73 40 990 25 40 990
SI 03:00:00 NR -13.11 109.41 25 40 990
SI 04:00:00 NR -13.12 109.24 40 990 25 40 990
SI 06:00:00 TS -13.13 109.00 25 40 990 30 1000
SI 07:00:00 TS -13.16 108.92 40 990 25 40 990 30 1000
SI 09:00:00 TS -13.25 108.62 27 40 990 30 1000
SI 10:00:00 TS -13.29 108.50 40 990 28 40 990 30 1000
SI 12:00:00 TS -13.36 108.15 30 40 990 30 1000
SI 13:00:00 TS -13.40 107.97 40 990 30 40 990 30 999
SI 15:00:00 TS -13.46 107.63 30 40 990 30 998
SI 16:00:00 TS -13.49 107.47 40 990 30 40 990 30 998
SI 18:00:00 TS -13.50 107.16 30 40 990 30 997
SI 19:00:00 TS -13.50 107.01 40 990 31 40 990 31 997
SI 21:00:00 TS -13.51 106.73 35 40 990 35 996
SI 22:00:00 TS -13.51 106.60 40 990 36 40 990 36 995
SI 1999-01-23 00:00:00 TS -13.52 106.35 40 46 986 40 995
SI 01:00:00 TS -13.54 106.21 50 985 40 50 985 40 994
SI 03:00:00 TS -13.57 105.91 42 50 985 40 993
SI 04:00:00 TS -13.60 105.76 50 985 43 50 985 40 993
SI 06:00:00 TS -13.65 105.46 45 53 981 40 992
SI 07:00:00 TS -13.69 105.31 55 980 45 55 980 40 992
SI 09:00:00 TS -13.79 105.02 45 55 980 42 991
SI 10:00:00 TS -13.85 104.87 55 980 45 55 980 43 990
SI 12:00:00 TS -13.98 104.55 45 58 976 45 990
SI 13:00:00 TS -14.05 104.39 60 975 45 60 975 47 988
SI 15:00:00 TS -14.22 104.07 47 63 971 52 985
SI 16:00:00 TS -14.31 103.91 65 970 48 65 970 55 983
SI 18:00:00 TS -14.48 103.55 50 65 970 60 980
SI 19:00:00 TS -14.56 103.37 65 970 50 65 970 60 979
SI 21:00:00 TS -14.68 103.04 52 65 970 62 978
SI 22:00:00 TS -14.74 102.86 65 970 53 65 970 63 977
SI 1999-01-24 00:00:00 TS -14.88 102.50 55 71 966 65 976
SI 01:00:00 TS -14.94 102.34 75 965 56 75 965 67 974
SI 03:00:00 TS -15.06 102.04 60 78 961 72 970
SI 04:00:00 TS -15.13 101.89 80 960 61 80 960 75 968
SI 06:00:00 TS -15.27 101.57 65 80 960 80 965
SI 07:00:00 TS -15.34 101.38 80 960 66 80 960 80 965
SI 09:00:00 TS -15.46 100.98 70 80 956 80 965
SI 10:00:00 TS -15.52 100.78 80 955 71 80 955 80 965
SI 12:00:00 TS -15.62 100.36 75 80 955 80 965
SI 13:00:00 TS -15.69 100.18 80 955 75 80 955 80 965
SI 15:00:00 TS -15.84 99.82 75 80 955 80 965
SI 16:00:00 TS -15.91 99.65 80 955 75 80 955 80 965
SI 18:00:00 TS -16.02 99.27 75 80 955 80 965
SI 19:00:00 TS -16.06 99.07 80 955 75 80 955 82 963
SI 21:00:00 TS -16.12 98.69 77 83 951 87 960
SI 22:00:00 TS -16.14 98.50 85 950 78 85 950 90 958
SI 1999-01-25 00:00:00 TS -16.14 98.08 80 85 950 95 955
SI 01:00:00 TS -16.13 97.87 85 950 80 85 950 93 955
SI 03:00:00 TS -16.08 97.49 80 85 953 90 957
SI 04:00:00 TS -16.05 97.30 85 955 80 85 955 88 958
SI 06:00:00 TS -15.98 96.91 80 85 955 85 960
SI 07:00:00 TS -15.95 96.71 85 955 79 85 955 81 962
SI 09:00:00 TS -15.88 96.34 77 81 958 75 966
SI 10:00:00 TS -15.84 96.17 80 960 76 80 960 71 968
SI 12:00:00 TS -15.71 95.89 75 55 972 76 960 65 972
SI 13:00:00 TS -15.63 95.79 75 960 75 55 972 75 960 65 972
SI 15:00:00 TS -15.47 95.60 75 55 972 71 963 65 972
SI 16:00:00 TS -15.39 95.52 70 965 75 55 972 70 965 65 972
SI 18:00:00 TS -15.24 95.37 75 55 972 66 968 65 972
SI 19:00:00 TS -15.16 95.29 65 970 73 54 972 65 970 65 972
SI 21:00:00 TS -15.01 95.13 70 53 973 61 973 65 973
SI 22:00:00 TS -14.93 95.06 60 975 68 52 974 60 975 65 974
SI 1999-01-26 00:00:00 TS -14.79 94.92 65 52 975 60 975 65 975
SI 01:00:00 TS -14.73 94.85 60 975 65 51 975 60 975 63 975
SI 03:00:00 TS -14.61 94.72 65 50 977 56 978 60 977
SI 04:00:00 TS -14.56 94.66 55 980 65 49 978 55 980 58 978
SI 06:00:00 TS -14.48 94.56 65 48 980 51 983 55 980
SI 07:00:00 TS -14.45 94.51 50 985 63 47 980 50 985 55 980
SI 09:00:00 TS -14.42 94.40 60 46 982 50 985 55 982
SI 10:00:00 TS -14.41 94.35 50 985 58 45 983 50 985 55 983
SI 12:00:00 TS -14.40 94.26 55 45 985 50 985 55 985
SI 13:00:00 TS -14.39 94.21 50 985 55 44 985 50 985 53 985
SI 15:00:00 TS -14.38 94.12 55 42 986 50 985 50 986
SI 16:00:00 TS -14.38 94.08 50 985 55 41 987 50 985 48 987
SI 18:00:00 TS -14.39 93.98 55 40 988 50 985 45 988
SI 19:00:00 TS -14.39 93.93 50 985 55 39 988 50 985 45 988
SI 21:00:00 TS -14.38 93.84 55 38 989 50 985 45 989
SI 22:00:00 TS -14.38 93.78 50 985 55 37 989 50 985 45 989
SI 1999-01-27 00:00:00 TS -14.42 93.69 55 37 990 50 985 45 990
SI 01:00:00 TS -14.44 93.63 50 985 55 36 990 50 985 45 990
SI 03:00:00 TS -14.52 93.50 55 36 990 50 985 45 990
SI 04:00:00 TS -14.57 93.44 50 985 55 35 990 50 985 45 990
SI 06:00:00 TS -14.65 93.34 55 35 990 50 985 45 990
SI 07:00:00 TS -14.69 93.29 50 985 55 35 990 50 985 45 990
SI 09:00:00 TS -14.83 93.14 57 35 990 43 988 45 990
SI 10:00:00 TS -14.90 93.06 40 990 58 35 990 40 990 45 990
SI 12:00:00 TS -15.04 92.92 60 35 990 40 990 45 990
SI 13:00:00 TS -15.09 92.83 40 990 59 35 990 40 990 45 990
SI 15:00:00 TS -15.20 92.61 57 35 990 40 990 45 990
SI 16:00:00 TS -15.25 92.48 40 990 56 35 990 40 990 45 990
SI 18:00:00 TS -15.40 92.21 55 35 990 40 990 45 990
SI 19:00:00 TS -15.48 92.07 40 990 55 35 990 40 990 45 990
SI 21:00:00 TS -15.63 91.77 55 35 990 40 990 45 990
SI 22:00:00 TS -15.70 91.61 40 990 55 35 990 40 990 45 990
SI 1999-01-28 00:00:00 TS -15.86 91.27 55 35 990 36 993 45 990
SI 01:00:00 TS -15.94 91.09 35 995 54 35 990 35 995 45 990
SI 03:00:00 TS -16.11 90.72 52 35 990 35 995 45 990
SI 04:00:00 TS -16.20 90.53 35 995 51 35 990 35 995 45 990
SI 06:00:00 TS -16.36 90.19 50 35 990 28 998 45 990
SI 07:00:00 TS -16.44 90.05 25 1000 50 35 990 25 1000 45 990
SI 09:00:00 TS -16.59 89.79 50 35 990 25 1000 45 990
SI 10:00:00 TS -16.65 89.67 50 35 990 25 1000 45 990
SI 12:00:00 TS -16.77 89.40 35 990 50 35 990 45 990
SI 15:00:00 TS -16.91 88.87 50 35 990 45 990
SI 18:00:00 TS -17.03 88.23 35 990 50 35 990 45 990
SI 21:00:00 TS -17.16 87.49 50 35 990 45 990
SI 1999-01-29 00:00:00 TS -17.27 86.73 35 990 50 35 990 45 990
SI 03:00:00 TS -17.34 86.10 50 35 991 45 991
SI 06:00:00 TS -17.40 85.53 35 992 50 35 992 45 992
SI 09:00:00 TS -17.48 85.00 47 32 993 40 993
SI 12:00:00 TS -17.53 84.50 30 995 45 30 995 35 995
SI 15:00:00 TS -17.56 84.00 42 30 996 35 996
SI 18:00:00 TS -17.53 83.47 30 997 40 30 997 35 997
SI 21:00:00 TS -17.47 82.85 40 30 997 35 997
SI 1999-01-30 00:00:00 TS -17.37 82.23 30 997 40 30 997 35 997
SI 03:00:00 TS -17.28 81.66 40 29 997 35 997
SI 06:00:00 TS -17.17 81.13 28 998 40 28 998 35 998
SI 09:00:00 TS -17.02 80.67 37 28 998 35 998
SI 12:00:00 TS -16.83 80.17 28 998 35 28 998 35 998
SI 15:00:00 TS -16.63 79.56 35 26 999 32 999
SI 18:00:00 TS -16.40 78.87 25 1000 35 25 1000 30 1000
SI 21:00:00 TS -16.13 78.07 32 25 1000 30 1000
SI 1999-01-31 00:00:00 TS -15.83 77.27 25 1000 30 25 1000 30 1000
SI 03:00:00 TS -15.54 76.58 27 22 1001 27 1001
SI 06:00:00 TS -15.23 75.93 20 1002 25 20 1002 25 1002
SI 09:00:00 TS -14.93 75.27 25 20 1002 25 1002
SI 12:00:00 TS -14.60 74.63 20 1002 25 20 1002 25 1002
SI 15:00:00 TS -14.21 74.04 22 20 1002 25 1002
SI 18:00:00 TS -13.80 73.50 20 1002 20 20 1002 25 1002
SI 21:00:00 TS -13.38 72.99 22 22 1001 27 1001
SI 1999-02-01 00:00:00 TS -13.03 72.53 25 1000 25 25 1000 30 1000
SI 03:00:00 TS -12.83 72.11 25 25 1000 30 1000
SI 06:00:00 TS -12.70 71.73 25 1000 25 25 1000 30 1000
SI 09:00:00 TS -12.57 71.41 25 25 1000 30 1000
SI 12:00:00 TS -12.45 71.16 25 1000 25 25 1000 30 1000
SI 15:00:00 TS -12.29 71.02 25 25 1000 30 1000
SI 18:00:00 TS -12.10 70.97 25 1000 25 25 1000 30 1000
SI 21:00:00 TS -11.88 71.01 25 1000 30 1000
SI 1999-02-02 00:00:00 TS -11.70 70.90 25 1000 25 1000 30 1000
SI 03:00:00 TS -11.59 70.78 22 1001 27 1001
SI 06:00:00 TS -11.60 70.60 20 1002 20 1002 25 1002
SI 09:00:00 TS -11.74 70.34 20 1002 25 1002
SI 12:00:00 TS -12.00 70.00 20 1002 20 1002 25 1002
SI 15:00:00 TS -12.32 69.57 20 1003 22 1003
SI 18:00:00 TS -12.70 69.10 20 1004 20 1004 20 1004
SI 21:00:00 TS -13.10 68.68 1004 20 1004
SI 1999-02-03 00:00:00 TS -13.50 68.30 1005 1005 20 1005

Source Information

Agency Information
USA bsh151999.txt
TOKYO
CMA
HKO
NEWDELHI
REUNION WMO-Best-Tracks.txt:Line=18407:birenda
BOM IDCKMSTM0S.csv:Line=20069:DAMIEN
NADI
WELLINGTON
DS824
TD9636
TD9635
NEUMANN tracks.sh:Storm=1155:DAMIEN/BIREN:DA:BSH151999
MLC

All available IBTrACS Data

SEASON BASIN SUBBASIN ISO_TIME_________ NATURE LAT LON WMO WIND WMO PRES WMO AGENCY DIST2LAND LANDFALL IFLAG USA AGENCY USA ATCF_ID USA LAT USA LON USA WIND USA SSHS REUNION LAT REUNION LON REUNION TYPE REUNION WIND REUNION PRES REUNION TNUM REUNION CI BOM LAT BOM LON BOM TYPE BOM WIND BOM PRES BOM CI BOM ROCI NEUMANN LAT NEUMANN LON NEUMANN CLASS NEUMANN WIND NEUMANN PRES STORM SPEED STORM DIR
Year degrees north degrees east kts mb km km degrees north degrees east kts 1 degrees north degrees east kts mb 1 1 degrees north degrees east kts mb 1 nmile degrees north degrees east kts mb kts degrees
1999 SI WA 1999-01-21 01:00:00 NR -12.90 113.20 25 1000 bom 484 484 ______O_______ -1 -12.90 113.20 20 25 1000 2.00 3 293
1999 SI WA 03:00:00 NR -12.86 113.11 487 476 ______P_______ -1 -12.86 113.11 20 26 999 4 287
1999 SI WA 06:00:00 NR -12.81 112.91 480 480 ______P_______ -1 -12.81 112.91 20 29 998 5 281
1999 SI WA 07:00:00 NR -12.80 112.80 30 998 bom 482 482 ______O_______ -1 -12.80 112.80 20 30 998 2.50 322 7 274
1999 SI WA 09:00:00 NR -12.79 112.53 491 491 ______P_______ -1 -12.79 112.53 20 33 996 322 8 270
1999 SI WA 10:00:00 NR -12.80 112.40 35 995 bom 493 470 ______O_______ -1 -12.80 112.40 30 35 995 3.00 322 16 286
1999 SI WA 12:00:00 NR -12.58 111.77 470 459 O_____P_______ jtwc_sh SH151999 -11.40 110.00 25 -1 -12.87 112.21 30 38 991 322 21 289
1999 SI WA 13:00:00 NR -12.46 111.41 40 990 bom 460 450 P_____O_______ SH151999 -11.59 110.02 25 -1 -12.90 112.10 30 40 990 3.00 322 14 277
1999 SI WA 15:00:00 NR -12.49 111.03 465 465 P_____P_______ SH151999 -11.94 110.05 25 -1 -12.90 111.77 30 40 990 322 11 266
1999 SI WA 16:00:00 NR -12.50 110.82 40 990 bom 469 469 P_____O_______ SH151999 -12.11 110.05 25 -1 -12.90 111.60 30 40 990 3.00 322 8 242
1999 SI WA 18:00:00 NR -12.68 110.67 493 493 O_____P_______ jtwc_sh SH151999 -12.40 110.00 25 -1 -12.96 111.34 30 40 990 322 7 224
1999 SI WA 19:00:00 NR -12.76 110.57 40 990 bom 507 507 P_____O_______ SH151999 -12.52 109.94 25 -1 -13.00 111.20 30 40 990 3.00 322 8 238
1999 SI WA 21:00:00 NR -12.89 110.32 524 524 P_____P_______ SH151999 -12.71 109.78 25 -1 -13.07 110.87 30 40 990 322 8 244
1999 SI WA 22:00:00 NR -12.94 110.18 40 990 bom 526 526 P_____O_______ SH151999 -12.78 109.66 25 -1 -13.10 110.70 30 40 990 3.00 322 9 251
1999 SI WA 1999-01-22 00:00:00 NR -13.04 109.88 544 544 O_____P_______ jtwc_sh SH151999 -12.90 109.40 25 -1 -13.17 110.37 30 40 990 322 9 254
1999 SI WA 01:00:00 NR -13.07 109.73 40 990 bom 559 559 P_____O_______ SH151999 -12.95 109.26 25 -1 -13.20 110.20 30 40 990 3.00 322 9 262
1999 SI WA 03:00:00 NR -13.11 109.41 566 566 P_____P_______ SH151999 -13.01 108.94 25 -1 -13.21 109.87 30 40 990 322 10 265
1999 SI WA 04:00:00 NR -13.12 109.24 40 990 bom 572 572 P_____O_______ SH151999 -13.03 108.77 25 -1 -13.20 109.70 30 40 990 3.00 322 8 266
1999 SI WA 06:00:00 TS -13.13 109.00 579 579 O_____P_____O_ jtwc_sh SH151999 -13.10 108.40 25 -1 -13.20 109.36 30 40 990 322 -13.00 110.00 TC 30 1000 6 262
1999 SI WA 07:00:00 TS -13.16 108.92 40 990 bom 593 593 P_____O_____P_ SH151999 -13.16 108.21 25 -1 -13.20 109.20 30 40 990 3.00 322 -13.09 109.77 TC 30 1000 8 253
1999 SI WA 09:00:00 TS -13.25 108.62 605 605 P_____P_____P_ SH151999 -13.29 107.81 27 -1 -13.20 108.93 30 40 990 322 -13.25 109.31 TC 30 1000 9 252
1999 SI WA 10:00:00 TS -13.29 108.50 40 990 bom 616 616 P_____O_____P_ SH151999 -13.36 107.60 28 -1 -13.20 108.80 30 40 990 3.00 322 -13.32 109.09 TC 30 1000 10 256
1999 SI WA 12:00:00 TS -13.36 108.15 628 628 O_____P_____O_ jtwc_sh SH151999 -13.50 107.20 30 -1 -13.19 108.54 30 40 990 322 -13.40 108.70 TC 30 1000 10 258
1999 SI WA 13:00:00 TS -13.40 107.97 40 990 bom 628 628 P_____O_____P_ SH151999 -13.58 107.00 30 -1 -13.20 108.40 30 40 990 3.00 322 -13.41 108.53 TC 30 999 10 259
1999 SI WA 15:00:00 TS -13.46 107.63 644 644 P_____P_____P_ SH151999 -13.74 106.61 30 -1 -13.27 108.07 30 40 990 322 -13.38 108.22 TC 30 998 10 260
1999 SI WA 16:00:00 TS -13.49 107.47 40 990 bom 645 645 P_____O_____P_ SH151999 -13.81 106.42 30 -1 -13.30 107.90 30 40 990 3.00 322 -13.35 108.08 TC 30 998 9 265
1999 SI WA 18:00:00 TS -13.50 107.16 651 651 O_____P_____I_ jtwc_sh SH151999 -13.90 106.10 30 -1 -13.30 107.57 30 40 990 322 -13.30 107.80 TC 30 997 9 268
1999 SI WA 19:00:00 TS -13.50 107.01 40 990 bom 655 655 P_____O_____P_ SH151999 -13.91 105.97 31 -1 -13.30 107.40 30 40 990 3.00 322 -13.29 107.66 TC 31 997 8 269
1999 SI WA 21:00:00 TS -13.51 106.73 660 660 P_____P_____P_ SH151999 -13.88 105.76 35 0 -13.36 107.06 30 40 990 322 -13.28 107.36 TC 35 996 8 268
1999 SI WA 22:00:00 TS -13.51 106.60 40 990 bom 662 662 P_____O_____P_ SH151999 -13.85 105.67 36 0 -13.40 106.90 30 40 990 3.00 322 -13.28 107.22 TC 36 995 7 268
1999 SI WA 1999-01-23 00:00:00 TS -13.52 106.35 670 670 O_____P_____O_ jtwc_sh SH151999 -13.80 105.50 40 0 -13.47 106.64 30 46 986 322 -13.30 106.90 TC 40 995 8 266
1999 SI WA 01:00:00 TS -13.54 106.21 50 985 bom 672 672 P_____O_____P_ SH151999 -13.79 105.40 40 0 -13.50 106.50 30 50 985 3.50 322 -13.32 106.73 TC 40 994 8 263
1999 SI WA 03:00:00 TS -13.57 105.91 692 692 P_____P_____P_ SH151999 -13.77 105.21 42 0 -13.57 106.17 30 50 985 322 -13.38 106.36 TC 40 993 9 262
1999 SI WA 04:00:00 TS -13.60 105.76 50 985 bom 696 696 P_____O_____P_ SH151999 -13.77 105.11 43 0 -13.60 106.00 30 50 985 3.50 322 -13.41 106.17 TC 40 993 9 260
1999 SI WA 06:00:00 TS -13.65 105.46 712 712 O_____P_____I_ jtwc_sh SH151999 -13.80 104.90 45 0 -13.66 105.67 30 53 981 322 -13.50 105.80 TC 40 992 9 258
1999 SI WA 07:00:00 TS -13.69 105.31 55 980 bom 715 715 P_____O_____P_ SH151999 -13.83 104.79 45 0 -13.70 105.50 30 55 980 4.00 322 -13.53 105.63 TC 40 992 9 253
1999 SI WA 09:00:00 TS -13.79 105.02 732 732 P_____P_____P_ SH151999 -13.92 104.57 45 0 -13.83 105.17 30 55 980 322 -13.61 105.31 TC 42 991 9 250
1999 SI WA 10:00:00 TS -13.85 104.87 55 980 bom 735 735 P_____O_____P_ SH151999 -13.98 104.45 45 0 -13.90 105.00 30 55 980 4.00 322 -13.66 105.14 TC 43 990 10 247
1999 SI WA 12:00:00 TS -13.98 104.55 764 764 O_____P_____O_ jtwc_sh SH151999 -14.10 104.20 45 0 -14.03 104.66 30 58 976 322 -13.80 104.80 TC 45 990 10 246
1999 SI WA 13:00:00 TS -14.05 104.39 60 975 bom 781 781 P_____O_____P_ SH151999 -14.16 104.07 45 0 -14.10 104.50 30 60 975 4.00 322 -13.90 104.61 TC 47 988 10 242
1999 SI WA 15:00:00 TS -14.22 104.07 801 801 P_____P_____P_ SH151999 -14.29 103.78 47 0 -14.23 104.24 30 63 971 322 -14.14 104.21 TC 52 985 11 241
1999 SI WA 16:00:00 TS -14.31 103.91 65 970 bom 819 819 P_____O_____P_ SH151999 -14.36 103.63 48 0 -14.30 104.10 40 65 970 4.50 322 -14.26 104.00 TC 55 983 11 243
1999 SI WA 18:00:00 TS -14.48 103.55 851 851 O_____P_____O_ jtwc_sh SH151999 -14.50 103.30 50 0 -14.44 103.76 40 65 970 304 -14.50 103.60 TC 60 980 12 244
1999 SI WA 19:00:00 TS -14.56 103.37 65 970 bom 870 870 P_____O_____P_ SH151999 -14.57 103.13 50 0 -14.50 103.60 40 65 970 4.50 295 -14.60 103.40 TC 60 979 11 248
1999 SI WA 21:00:00 TS -14.68 103.04 897 897 P_____P_____P_ SH151999 -14.70 102.76 52 0 -14.56 103.34 40 65 970 295 -14.78 103.00 TC 62 978 11 249
1999 SI WA 22:00:00 TS -14.74 102.86 65 970 bom 902 902 P_____O_____P_ SH151999 -14.77 102.57 53 0 -14.60 103.20 40 65 970 4.50 295 -14.86 102.82 TC 63 977 11 249
1999 SI WA 1999-01-24 00:00:00 TS -14.88 102.50 941 941 O_____P_____O_ jtwc_sh SH151999 -14.90 102.20 55 0 -14.73 102.81 40 71 966 277 -15.00 102.50 TC 65 976 11 248
1999 SI WA 01:00:00 TS -14.94 102.34 75 965 bom 951 951 P_____O_____P_ SH151999 -14.97 102.03 56 0 -14.80 102.60 40 75 965 4.50 268 -15.06 102.39 TC 67 974 10 247
1999 SI WA 03:00:00 TS -15.06 102.04 986 986 P_____P_____P_ SH151999 -15.10 101.71 60 0 -14.93 102.20 40 78 961 268 -15.16 102.21 TC 72 970 9 247
1999 SI WA 04:00:00 TS -15.13 101.89 80 960 bom 992 992 P_____O_____P_ SH151999 -15.17 101.54 61 0 -15.00 102.00 40 80 960 5.00 268 -15.21 102.12 TC 75 968 10 246
1999 SI WA 06:00:00 TS -15.27 101.57 1027 1027 O_____P_____O_ jtwc_sh SH151999 -15.30 101.20 65 1 -15.20 101.60 40 80 960 268 -15.30 101.90 TC 80 965 11 247
1999 SI WA 07:00:00 TS -15.34 101.38 80 960 bom 1038 1038 P_____O_____P_ SH151999 -15.37 101.01 66 1 -15.30 101.40 40 80 960 5.00 268 -15.34 101.73 TC 80 965 12 251
1999 SI WA 09:00:00 TS -15.46 100.98 1076 1076 P_____P_____P_ SH151999 -15.50 100.61 70 1 -15.45 101.00 40 80 956 268 -15.44 101.34 TC 80 965 12 253
1999 SI WA 10:00:00 TS -15.52 100.78 80 955 bom 1086 1086 P_____O_____P_ SH151999 -15.57 100.40 71 1 -15.50 100.80 40 80 955 5.00 268 -15.48 101.12 TC 80 965 12 255
1999 SI WA 12:00:00 TS -15.62 100.36 1115 1115 O_____P_____O_ jtwc_sh SH151999 -15.70 100.00 75 1 -15.56 100.39 40 80 955 268 -15.60 100.70 TC 80 965 12 254
1999 SI WA 13:00:00 TS -15.69 100.18 80 955 bom 1136 1136 P_____O_____P_ SH151999 -15.77 99.81 75 1 -15.60 100.20 40 80 955 5.00 268 -15.68 100.52 TC 80 965 11 247
1999 SI WA 15:00:00 TS -15.84 99.82 1167 1167 P_____P_____P_ SH151999 -15.92 99.44 75 1 -15.74 99.87 40 80 955 268 -15.86 100.17 TC 80 965 11 246
1999 SI WA 16:00:00 TS -15.91 99.65 80 955 bom 1187 1187 P_____O_____P_ SH151999 -15.99 99.25 75 1 -15.80 99.70 40 80 955 5.00 268 -15.95 99.99 TC 80 965 11 251
1999 SI WA 18:00:00 TS -16.02 99.27 1214 1214 O_____P_____O_ jtwc_sh SH151999 -16.10 98.90 75 1 -15.87 99.30 40 80 955 268 -16.10 99.60 TC 80 965 12 255
1999 SI WA 19:00:00 TS -16.06 99.07 80 955 bom 1235 1235 P_____O_____P_ SH151999 -16.14 98.73 75 1 -15.90 99.10 40 80 955 5.00 268 -16.15 99.38 TC 82 963 11 260
1999 SI WA 21:00:00 TS -16.12 98.69 1259 1259 P_____P_____P_ SH151999 -16.18 98.40 77 1 -15.97 98.78 40 83 951 268 -16.21 98.90 TC 87 960 11 262
1999 SI WA 22:00:00 TS -16.14 98.50 85 950 bom 1271 1271 P_____O_____P_ SH151999 -16.19 98.24 78 1 -16.00 98.60 40 85 950 5.00 268 -16.22 98.66 TC 90 958 12 268
1999 SI WA 1999-01-25 00:00:00 TS -16.14 98.08 1297 1297 O_____P_____O_ jtwc_sh SH151999 -16.20 97.90 80 1 -16.01 98.14 40 85 950 268 -16.20 98.20 TC 95 955 12 271
1999 SI WA 01:00:00 TS -16.13 97.87 85 950 bom 1310 1310 P_____O_____P_ SH151999 -16.21 97.72 80 1 -16.00 97.90 40 85 950 5.00 268 -16.18 98.00 TC 93 955 11 276
1999 SI WA 03:00:00 TS -16.08 97.49 1337 1337 P_____P_____P_ SH151999 -16.21 97.36 80 1 -15.94 97.50 40 85 953 268 -16.09 97.62 TC 90 957 11 278
1999 SI WA 04:00:00 TS -16.05 97.30 85 955 bom 1342 1342 P_____O_____P_ SH151999 -16.21 97.17 80 1 -15.90 97.30 40 85 955 5.00 268 -16.03 97.44 TC 88 958 11 280
1999 SI WA 06:00:00 TS -15.98 96.91 1370 1370 O_____P_____O_ jtwc_sh SH151999 -16.20 96.80 80 1 -15.83 96.82 40 85 955 285 -15.90 97.10 TC 85 960 12 280
1999 SI WA 07:00:00 TS -15.95 96.71 85 955 bom 1377 1377 P_____O_____P_ SH151999 -16.20 96.60 79 1 -15.80 96.60 40 85 955 5.00 295 -15.84 96.92 TC 81 962 11 280
1999 SI WA 09:00:00 TS -15.88 96.34 1406 1406 P_____P_____P_ SH151999 -16.19 96.21 77 1 -15.74 96.25 40 81 958 295 -15.71 96.56 TC 75 966 11 282
1999 SI WA 10:00:00 TS -15.84 96.17 80 960 bom 1406 1406 P_____O_____P_ SH151999 -16.17 96.02 76 1 -15.70 96.10 40 80 960 5.00 295 -15.64 96.40 TC 71 968 9 292
1999 SI WA 12:00:00 TS -15.71 95.89 1421 1421 O____OP_____O_ jtwc_sh SH151999 -16.10 95.70 75 1 -15.50 96.10 3 55 972 4.00 4.00 -15.57 95.82 40 76 960 312 -15.50 96.10 TC 65 972 9 300
1999 SI WA 13:00:00 TS -15.63 95.79 75 960 bom 1421 1421 P____PO_____P_ SH151999 -16.04 95.58 75 1 -15.43 96.00 3 55 972 -15.50 95.70 40 75 960 4.50 322 -15.43 95.97 TC 65 972 7 309
1999 SI WA 15:00:00 TS -15.47 95.60 1430 1422 P____PP_____P_ SH151999 -15.89 95.40 75 1 -15.30 95.79 3 55 972 -15.37 95.49 40 71 963 322 -15.30 95.76 TC 65 972 7 313
1999 SI WA 16:00:00 TS -15.39 95.52 70 965 bom 1430 1423 P____PO_____P_ SH151999 -15.80 95.33 75 1 -15.24 95.69 3 55 972 -15.30 95.40 40 70 965 4.50 322 -15.23 95.67 TC 65 972 6 316
1999 SI WA 18:00:00 TS -15.24 95.37 1424 1424 O____OP_____O_ jtwc_sh SH151999 -15.60 95.20 75 1 -15.10 95.50 3 55 972 3.50 4.00 -15.17 95.26 40 66 968 339 -15.10 95.50 TC 65 972 6 315
1999 SI WA 19:00:00 TS -15.16 95.29 65 970 bom 1432 1425 P____PO_____P_ SH151999 -15.50 95.12 73 1 -15.03 95.41 3 54 972 -15.10 95.20 40 65 970 4.50 349 -15.03 95.41 TC 65 972 7 315
1999 SI WA 21:00:00 TS -15.01 95.13 1434 1427 P____PP_____P_ SH151999 -15.28 94.98 70 1 -14.89 95.24 3 53 973 -14.97 95.07 40 61 973 349 -14.89 95.24 TC 65 973 6 317
1999 SI WA 22:00:00 TS -14.93 95.06 60 975 bom 1427 1427 P____PO_____P_ SH151999 -15.18 94.92 68 1 -14.83 95.15 3 52 974 -14.90 95.00 30 60 975 4.00 349 -14.83 95.15 TC 65 974 6 317
1999 SI WA 1999-01-26 00:00:00 TS -14.79 94.92 1438 1431 O____OP_____O_ jtwc_sh SH151999 -15.00 94.80 65 1 -14.70 95.00 3 52 975 3.50 4.00 -14.77 94.87 30 60 975 366 -14.70 95.00 TC 65 975 6 316
1999 SI WA 01:00:00 TS -14.73 94.85 60 975 bom 1439 1433 P____PO_____P_ SH151999 -14.93 94.74 65 1 -14.64 94.93 3 51 975 -14.70 94.80 30 60 975 4.00 376 -14.64 94.93 TC 63 975 5 314
1999 SI WA 03:00:00 TS -14.61 94.72 1441 1441 P____PP_____P_ SH151999 -14.81 94.64 65 1 -14.53 94.79 3 50 977 -14.56 94.66 30 56 978 376 -14.53 94.79 TC 60 977 5 313
1999 SI WA 04:00:00 TS -14.56 94.66 55 980 bom 1441 1441 P____PO_____P_ SH151999 -14.77 94.59 65 1 -14.48 94.72 3 49 978 -14.50 94.60 30 55 980 4.00 376 -14.48 94.72 TC 58 978 4 310
1999 SI WA 06:00:00 TS -14.48 94.56 1443 1443 O____OP_____O_ jtwc_sh SH151999 -14.70 94.50 65 1 -14.40 94.60 3 48 980 3.00 3.50 -14.42 94.54 30 51 983 376 -14.40 94.60 TC 55 980 4 306
1999 SI WA 07:00:00 TS -14.45 94.51 50 985 bom 1449 1441 P____PO_____P_ SH151999 -14.67 94.45 63 0 -14.37 94.54 3 47 980 -14.40 94.50 30 50 985 3.50 376 -14.37 94.54 TC 55 980 3 291
1999 SI WA 09:00:00 TS -14.42 94.40 1448 1448 P____PP_____P_ SH151999 -14.63 94.35 60 0 -14.33 94.44 3 46 982 -14.39 94.36 30 50 985 376 -14.33 94.44 TC 55 982 3 284
1999 SI WA 10:00:00 TS -14.41 94.35 50 985 bom 1455 1455 P____PO_____P_ SH151999 -14.62 94.30 58 0 -14.31 94.39 3 45 983 -14.40 94.30 30 50 985 3.50 376 -14.31 94.39 TC 55 983 3 279
1999 SI WA 12:00:00 TS -14.40 94.26 1455 1455 O____OP_____O_ jtwc_sh SH151999 -14.60 94.20 55 0 -14.30 94.30 3 45 985 3.00 3.50 -14.40 94.23 30 50 985 376 -14.30 94.30 TC 55 985 3 279
1999 SI WA 13:00:00 TS -14.39 94.21 50 985 bom 1462 1462 P____PO_____P_ SH151999 -14.58 94.15 55 0 -14.29 94.25 3 44 985 -14.40 94.20 30 50 985 3.50 376 -14.29 94.25 TC 53 985 3 279
1999 SI WA 15:00:00 TS -14.38 94.12 1469 1469 P____PP_____P_ SH151999 -14.54 94.06 55 0 -14.29 94.15 3 42 986 -14.39 94.13 30 50 985 376 -14.29 94.15 TC 50 986 3 276
1999 SI WA 16:00:00 TS -14.38 94.08 50 985 bom 1469 1469 P____PO_____P_ SH151999 -14.53 94.01 55 0 -14.29 94.10 3 41 987 -14.40 94.10 30 50 985 3.50 376 -14.29 94.10 TC 48 987 3 265
1999 SI WA 18:00:00 TS -14.39 93.98 1477 1477 O____OP_____O_ jtwc_sh SH151999 -14.50 93.90 55 0 -14.30 94.00 3 40 988 2.50 3.00 -14.47 94.03 30 50 985 376 -14.30 94.00 TC 45 988 3 264
1999 SI WA 19:00:00 TS -14.39 93.93 50 985 bom 1484 1484 P____PO_____P_ SH151999 -14.49 93.84 55 0 -14.29 93.95 3 39 988 -14.50 94.00 30 50 985 3.50 376 -14.29 93.95 TC 45 988 3 274
1999 SI WA 21:00:00 TS -14.38 93.84 1491 1491 P____PP_____P_ SH151999 -14.49 93.71 55 0 -14.27 93.85 3 38 989 -14.50 93.93 30 50 985 376 -14.27 93.85 TC 45 989 3 274
1999 SI WA 22:00:00 TS -14.38 93.78 50 985 bom 1491 1491 P____PO_____P_ SH151999 -14.49 93.64 55 0 -14.27 93.80 3 37 989 -14.50 93.90 30 50 985 3.50 376 -14.27 93.80 TC 45 989 3 257
1999 SI WA 1999-01-27 00:00:00 TS -14.42 93.69 1498 1498 O____OP_____O_ jtwc_sh SH151999 -14.50 93.50 55 0 -14.30 93.70 3 37 990 2.50 3.00 -14.56 93.85 30 50 985 376 -14.30 93.70 TC 45 990 3 247
1999 SI WA 01:00:00 TS -14.44 93.63 50 985 bom 1505 1505 P____PO_____P_ SH151999 -14.50 93.44 55 0 -14.34 93.65 3 36 990 -14.60 93.80 30 50 985 3.50 376 -14.34 93.65 TC 45 990 4 239
1999 SI WA 03:00:00 TS -14.52 93.50 1521 1521 P____PP_____P_ SH151999 -14.49 93.31 55 0 -14.46 93.55 3 36 990 -14.67 93.60 30 50 985 376 -14.46 93.55 TC 45 990 5 238
1999 SI WA 04:00:00 TS -14.57 93.44 50 985 bom 1536 1536 P____PO_____P_ SH151999 -14.49 93.24 55 0 -14.54 93.50 3 35 990 -14.70 93.50 30 50 985 3.50 376 -14.54 93.50 TC 45 990 4 233
1999 SI WA 06:00:00 TS -14.65 93.34 1543 1543 O____OP_____O_ jtwc_sh SH151999 -14.50 93.10 55 0 -14.70 93.40 3 35 990 2.50 3.00 -14.68 93.45 30 50 985 376 -14.70 93.40 TC 45 990 4 229
1999 SI WA 07:00:00 TS -14.69 93.29 50 985 bom 1552 1552 P____PO_____P_ SH151999 -14.51 93.03 55 0 -14.78 93.36 3 35 990 -14.70 93.40 30 50 985 3.50 376 -14.78 93.36 TC 45 990 5 226
1999 SI WA 09:00:00 TS -14.83 93.14 1574 1574 P____PP_____P_ SH151999 -14.53 92.87 57 0 -14.95 93.28 3 35 990 -14.89 93.13 30 43 988 376 -14.95 93.28 TC 45 990 6 226
1999 SI WA 10:00:00 TS -14.90 93.06 40 990 bom 1583 1583 P____PO_____P_ SH151999 -14.55 92.79 58 0 -15.04 93.23 3 35 990 -15.00 93.00 30 40 990 3.00 376 -15.04 93.23 TC 45 990 6 226
1999 SI WA 12:00:00 TS -15.04 92.92 1605 1605 O____OP_____O_ jtwc_sh SH151999 -14.60 92.60 60 0 -15.20 93.10 3 35 990 3.00 3.00 -15.15 92.87 30 40 990 376 -15.20 93.10 TC 45 990 6 230
1999 SI WA 13:00:00 TS -15.09 92.83 40 990 bom 1621 1621 P____PO_____P_ SH151999 -14.63 92.50 59 0 -15.27 93.01 3 35 990 -15.20 92.80 30 40 990 3.00 376 -15.27 93.01 TC 45 990 7 242
1999 SI WA 15:00:00 TS -15.20 92.61 1643 1643 P____PP_____P_ SH151999 -14.70 92.28 57 0 -15.41 92.80 3 35 990 -15.26 92.54 30 40 990 376 -15.41 92.80 TC 45 990 8 245
1999 SI WA 16:00:00 TS -15.25 92.48 40 990 bom 1659 1659 P____PO_____P_ SH151999 -14.75 92.16 56 0 -15.48 92.68 3 35 990 -15.30 92.40 30 40 990 3.00 376 -15.48 92.68 TC 45 990 9 242
1999 SI WA 18:00:00 TS -15.40 92.21 1689 1689 O____OP_____O_ jtwc_sh SH151999 -14.90 91.90 55 0 -15.60 92.40 3 35 990 2.50 3.00 -15.50 92.13 30 40 990 376 -15.60 92.40 TC 45 990 9 240
1999 SI WA 19:00:00 TS -15.48 92.07 40 990 bom 1704 1704 P____PO_____P_ SH151999 -15.01 91.76 55 0 -15.65 92.25 3 35 990 -15.60 92.00 30 40 990 3.00 376 -15.65 92.25 TC 45 990 10 242
1999 SI WA 21:00:00 TS -15.63 91.77 1734 1734 P____PP_____P_ SH151999 -15.28 91.47 55 0 -15.74 91.93 3 35 990 -15.74 91.74 30 40 990 376 -15.74 91.93 TC 45 990 10 243
1999 SI WA 22:00:00 TS -15.70 91.61 40 990 bom 1757 1757 P____PO_____P_ SH151999 -15.42 91.32 55 0 -15.79 91.76 3 35 990 -15.80 91.60 30 40 990 3.00 376 -15.79 91.76 TC 45 990 11 244
1999 SI WA 1999-01-28 00:00:00 TS -15.86 91.27 1795 1795 O____OP_____O_ jtwc_sh SH151999 -15.70 91.00 55 0 -15.90 91.40 3 35 990 2.50 3.00 -15.93 91.28 30 36 993 340 -15.90 91.40 TC 45 990 11 244
1999 SI WA 01:00:00 TS -15.94 91.09 35 995 bom 1806 1806 P____PO_____P_ SH151999 -15.82 90.83 54 0 -15.97 91.21 3 35 990 -16.00 91.10 30 35 995 3.00 322 -15.97 91.21 TC 45 990 12 245
1999 SI WA 03:00:00 TS -16.11 90.72 1846 1846 P____PP_____P_ SH151999 -16.03 90.49 52 0 -16.14 90.84 3 35 990 -16.13 90.70 30 35 995 322 -16.14 90.84 TC 45 990 12 245
1999 SI WA 04:00:00 TS -16.20 90.53 35 995 bom 1866 1866 P____PO_____P_ SH151999 -16.13 90.32 51 0 -16.23 90.65 3 35 990 -16.20 90.50 30 35 995 3.00 322 -16.23 90.65 TC 45 990 11 244
1999 SI WA 06:00:00 TS -16.36 90.19 1902 1902 O____OP_____O_ jtwc_sh SH151999 -16.30 90.00 50 0 -16.40 90.30 3 35 990 2.50 3.00 -16.33 90.16 30 28 998 322 -16.40 90.30 TC 45 990 10 243
1999 SI WA 07:00:00 TS -16.44 90.05 25 1000 bom 1913 1913 P____PO_____P_ SH151999 -16.38 89.87 50 0 -16.48 90.16 3 35 990 -16.40 90.00 20 25 1000 2.00 322 -16.48 90.16 TC 45 990 9 239
1999 SI MM 09:00:00 TS -16.59 89.79 1943 1943 P____PP_____P_ SH151999 -16.51 89.62 50 0 -16.62 89.90 3 35 990 -16.59 89.67 20 25 1000 322 -16.62 89.90 TC 45 990 9 239
1999 SI MM 10:00:00 TS -16.65 89.67 1959 1959 P____PO_____P_ SH151999 -16.58 89.49 50 0 -16.69 89.77 3 35 990 -16.70 89.50 20 25 1000 2.00 322 -16.69 89.77 TC 45 990 8 244
1999 SI MM 12:00:00 TS -16.77 89.40 35 990 reunion 1985 1985 O____O______O_ jtwc_sh SH151999 -16.70 89.20 50 0 -16.80 89.50 3 35 990 2.50 3.00 20 -16.80 89.50 TC 45 990 10 251
1999 SI MM 15:00:00 TS -16.91 88.87 2024 2024 P____P______P_ SH151999 -16.91 88.57 50 0 -16.91 89.02 3 35 990 -16.91 89.02 TC 45 990 11 257
1999 SI MM 18:00:00 TS -17.03 88.23 35 990 reunion 2075 2075 O____O______O_ jtwc_sh SH151999 -17.10 87.90 50 0 -17.00 88.40 3 35 990 2.50 3.00 -17.00 88.40 TC 45 990 13 259
1999 SI MM 21:00:00 TS -17.16 87.49 2137 2137 P____P______P_ SH151999 -17.26 87.34 50 0 -17.11 87.56 3 35 990 -17.11 87.56 TC 45 990 15 261
1999 SI MM 1999-01-29 00:00:00 TS -17.27 86.73 35 990 reunion 2198 2198 O____O______O_ jtwc_sh SH151999 -17.40 86.80 50 0 -17.20 86.70 3 35 990 2.50 3.00 -17.20 86.70 TC 45 990 13 262
1999 SI MM 03:00:00 TS -17.34 86.10 2238 2238 P____P______P_ SH151999 -17.52 86.20 50 0 -17.25 86.05 3 35 991 -17.25 86.05 TC 45 991 12 263
1999 SI MM 06:00:00 TS -17.40 85.53 35 992 reunion 2288 2288 O____O______O_ jtwc_sh SH151999 -17.60 85.60 50 0 -17.30 85.50 3 35 992 2.50 3.00 -17.30 85.50 TC 45 992 11 263
1999 SI MM 09:00:00 TS -17.48 85.00 2332 2332 P____P______P_ SH151999 -17.61 85.03 47 0 -17.41 84.99 3 32 993 -17.41 84.99 TC 40 993 10 262
1999 SI MM 12:00:00 TS -17.53 84.50 30 995 reunion 2368 2368 O____O______O_ jtwc_sh SH151999 -17.60 84.50 45 0 -17.50 84.50 2 30 995 2.50 2.50 -17.50 84.50 TC 35 995 10 265
1999 SI MM 15:00:00 TS -17.56 84.00 2413 2413 P____P______P_ SH151999 -17.61 84.07 42 0 -17.53 83.97 2 30 996 -17.53 83.97 TC 35 996 10 270
1999 SI MM 18:00:00 TS -17.53 83.47 30 997 reunion 2442 2442 O____O______O_ jtwc_sh SH151999 -17.60 83.60 40 0 -17.50 83.40 2 30 997 2.50 2.50 -17.50 83.40 TC 35 997 11 275
1999 SI MM 21:00:00 TS -17.47 82.85 2488 2488 P____P______P_ SH151999 -17.57 82.97 40 0 -17.41 82.80 2 30 997 -17.41 82.80 TC 35 997 12 278
1999 SI MM 1999-01-30 00:00:00 TS -17.37 82.23 30 997 reunion 2535 2535 O____O______O_ jtwc_sh SH151999 -17.50 82.30 40 0 -17.30 82.20 2 30 997 2.00 2.50 -17.30 82.20 TC 35 997 12 279
1999 SI MM 03:00:00 TS -17.28 81.66 2535 2486 P____P______P_ SH151999 -17.42 81.72 40 0 -17.21 81.64 2 29 997 -17.21 81.64 TC 35 997 11 281
1999 SI MM 06:00:00 TS -17.17 81.13 28 998 reunion 2475 2438 O____O______O_ jtwc_sh SH151999 -17.30 81.20 40 0 -17.10 81.10 2 28 998 2.00 2.50 -17.10 81.10 TC 35 998 10 285
1999 SI MM 09:00:00 TS -17.02 80.67 2438 2389 P____P______P_ SH151999 -17.11 80.73 37 0 -16.97 80.63 2 28 998 -16.97 80.63 TC 35 998 10 290
1999 SI MM 12:00:00 TS -16.83 80.17 28 998 reunion 2391 2332 O____O______O_ jtwc_sh SH151999 -16.90 80.30 35 0 -16.80 80.10 2 28 998 2.00 2.50 -16.80 80.10 TC 35 998 11 290
1999 SI MM 15:00:00 TS -16.63 79.56 2334 2267 P____P______P_ SH151999 -16.77 79.92 35 0 -16.57 79.39 2 26 999 -16.57 79.39 TC 32 999 13 289
1999 SI MM 18:00:00 TS -16.40 78.87 25 1000 reunion 2267 2193 O____O______O_ jtwc_sh SH151999 -16.60 79.40 35 0 -16.30 78.60 2 25 1000 1.50 2.00 -16.30 78.60 TC 30 1000 15 289
1999 SI MM 21:00:00 TS -16.13 78.07 2193 2120 P____P______P_ SH151999 -16.27 78.55 32 -1 -16.06 77.83 2 25 1000 -16.06 77.83 TC 30 1000 16 290
1999 SI MM 1999-01-31 00:00:00 TS -15.83 77.27 25 1000 reunion 2120 2055 O____O______O_ jtwc_sh SH151999 -15.90 77.60 30 -1 -15.80 77.10 2 25 1000 1.50 2.00 -15.80 77.10 TC 30 1000 16 292
1999 SI MM 03:00:00 TS -15.54 76.58 2059 2005 P____P______P_ SH151999 -15.60 76.78 27 -1 -15.51 76.48 2 22 1001 -15.51 76.48 TC 27 1001 14 295
1999 SI MM 06:00:00 TS -15.23 75.93 20 1002 reunion 1998 1945 O____O______O_ jtwc_sh SH151999 -15.30 76.00 25 -1 -15.20 75.90 2 20 1002 1.50 1.50 -15.20 75.90 TC 25 1002 14 296
1999 SI MM 09:00:00 TS -14.93 75.27 1949 1897 P____P______P_ SH151999 -14.97 75.21 25 -1 -14.91 75.30 2 20 1002 -14.91 75.30 TC 25 1002 14 297
1999 SI MM 12:00:00 TS -14.60 74.63 20 1002 reunion 1891 1855 O____O______O_ jtwc_sh SH151999 -14.60 74.50 25 -1 -14.60 74.70 2 20 1002 1.50 1.50 -14.60 74.70 TC 25 1002 14 301
1999 SI MM 15:00:00 TS -14.21 74.04 1849 1819 P____P______P_ SH151999 -14.20 73.96 22 -1 -14.21 74.09 2 20 1002 -14.21 74.09 TC 25 1002 14 306
1999 SI MM 18:00:00 TS -13.80 73.50 20 1002 reunion 1819 1791 O____O______O_ jtwc_sh SH151999 -13.80 73.50 20 -1 -13.80 73.50 2 20 1002 1.50 1.50 -13.80 73.50 TC 25 1002 13 309
1999 SI MM 21:00:00 TS -13.38 72.99 1791 1769 P____P______P_ SH151999 -13.42 73.04 22 -1 -13.36 72.97 2 22 1001 -13.36 72.97 TC 27 1001 12 309
1999 SI MM 1999-02-01 00:00:00 TS -13.03 72.53 25 1000 reunion 1765 1738 O____O______O_ jtwc_sh SH151999 -13.10 72.60 25 -1 -13.00 72.50 2 25 1000 2.00 2.00 -13.00 72.50 TC 30 1000 10 303
1999 SI MM 03:00:00 TS -12.83 72.11 1738 1715 P____P______P_ SH151999 -12.88 72.21 25 -1 -12.80 72.06 2 25 1000 -12.80 72.06 TC 30 1000 9 293
1999 SI MM 06:00:00 TS -12.70 71.73 25 1000 reunion 1706 1684 O____O______O_ jtwc_sh SH151999 -12.70 71.80 25 -1 -12.70 71.70 2 25 1000 2.00 2.00 -12.70 71.70 TC 30 1000 7 291
1999 SI MM 09:00:00 TS -12.57 71.41 1684 1672 P____P______P_ SH151999 -12.49 71.31 25 -1 -12.61 71.46 2 25 1000 -12.61 71.46 TC 30 1000 6 295
1999 SI MM 12:00:00 TS -12.45 71.16 25 1000 reunion 1678 1666 O____O______O_ jtwc_sh SH151999 -12.30 70.80 25 -1 -12.50 71.30 2 25 1000 2.00 2.00 -12.50 71.30 TC 30 1000 5 306
1999 SI MM 15:00:00 TS -12.29 71.02 1666 1666 P____P______P_ SH151999 -12.18 70.34 25 -1 -12.31 71.19 2 25 1000 -12.31 71.19 TC 30 1000 4 331
1999 SI MM 18:00:00 TS -12.10 70.97 25 1000 reunion 1678 1678 O____O______O_ jtwc_sh SH151999 -12.10 69.90 25 -1 -12.10 71.10 2 25 1000 1.50 2.00 -12.10 71.10 TC 30 1000 4 357
1999 SI MM 21:00:00 TS -11.88 71.01 1691 1688 _____P______P_ SH151999 -1 -11.88 71.01 2 25 1000 -11.88 71.01 TC 30 1000 4 351
1999 SI MM 1999-02-02 00:00:00 TS -11.70 70.90 25 1000 reunion 1694 1692 _____O______O_ -1 -11.70 70.90 2 25 1000 1.50 2.00 -11.70 70.90 TC 30 1000 4 322
1999 SI MM 03:00:00 TS -11.59 70.78 1692 1674 _____P______P_ -1 -11.59 70.78 2 22 1001 -11.59 70.78 TC 27 1001 3 289
1999 SI MM 06:00:00 TS -11.60 70.60 20 1002 reunion 1674 1650 _____O______O_ -1 -11.60 70.60 6 20 1002 9.90 -11.60 70.60 TC 25 1002 5 251
1999 SI MM 09:00:00 TS -11.74 70.34 1641 1595 _____P______P_ -1 -11.74 70.34 6 20 1002 -11.74 70.34 TC 25 1002 7 236
1999 SI MM 12:00:00 TS -12.00 70.00 20 1002 reunion 1595 1540 _____O______O_ -1 -12.00 70.00 6 20 1002 9.90 -12.00 70.00 TC 25 1002 10 233
1999 SI MM 15:00:00 TS -12.32 69.57 1540 1470 _____P______P_ -1 -12.32 69.57 6 20 1003 -12.32 69.57 TC 22 1003 11 231
1999 SI MM 18:00:00 TS -12.70 69.10 20 1004 reunion 1470 1409 _____O______O_ -1 -12.70 69.10 6 20 1004 9.90 -12.70 69.10 TC 20 1004 12 228
1999 SI MM 21:00:00 TS -13.10 68.68 1409 1348 _____P______P_ -1 -13.10 68.68 6 1004 -13.10 68.68 TC 20 1004 11 224
1999 SI MM 1999-02-03 00:00:00 TS -13.50 68.30 1005 reunion 1348 _____O______O_ -1 -13.50 68.30 6 1005 9.90 -13.50 68.30 TC 20 1005 11 223